sensor_id;sensor_type;location;lat;lon;timestamp;P1;durP1;ratioP1;P2;durP2;ratioP2
26750;SDS011;14345;48.272;25.926;2023-05-07T00:00:46;2.45;;;1.85;;
26750;SDS011;14345;48.272;25.926;2023-05-07T00:03:13;3.20;;;2.00;;
26750;SDS011;14345;48.272;25.926;2023-05-07T00:05:39;5.05;;;2.50;;
26750;SDS011;14345;48.272;25.926;2023-05-07T00:08:06;5.20;;;2.10;;
26750;SDS011;14345;48.272;25.926;2023-05-07T00:10:33;3.83;;;2.45;;
26750;SDS011;14345;48.272;25.926;2023-05-07T00:12:59;2.70;;;1.85;;
26750;SDS011;14345;48.272;25.926;2023-05-07T00:15:25;4.63;;;2.22;;
26750;SDS011;14345;48.272;25.926;2023-05-07T00:17:51;2.78;;;1.85;;
26750;SDS011;14345;48.272;25.926;2023-05-07T00:20:17;3.25;;;2.00;;
26750;SDS011;14345;48.272;25.926;2023-05-07T00:22:43;7.32;;;2.13;;
26750;SDS011;14345;48.272;25.926;2023-05-07T00:25:09;10.45;;;2.47;;
26750;SDS011;14345;48.272;25.926;2023-05-07T00:27:35;4.47;;;2.58;;
26750;SDS011;14345;48.272;25.926;2023-05-07T00:30:01;5.47;;;2.33;;
26750;SDS011;14345;48.272;25.926;2023-05-07T00:32:27;3.85;;;2.00;;
26750;SDS011;14345;48.272;25.926;2023-05-07T00:34:53;3.30;;;1.80;;
26750;SDS011;14345;48.272;25.926;2023-05-07T00:37:20;3.60;;;2.20;;
26750;SDS011;14345;48.272;25.926;2023-05-07T00:39:46;2.40;;;1.83;;
26750;SDS011;14345;48.272;25.926;2023-05-07T00:42:12;3.30;;;1.48;;
26750;SDS011;14345;48.272;25.926;2023-05-07T00:44:40;3.65;;;2.10;;
26750;SDS011;14345;48.272;25.926;2023-05-07T00:47:06;4.25;;;1.90;;
26750;SDS011;14345;48.272;25.926;2023-05-07T00:49:37;3.53;;;2.13;;
26750;SDS011;14345;48.272;25.926;2023-05-07T00:52:05;3.72;;;2.00;;
26750;SDS011;14345;48.272;25.926;2023-05-07T00:54:31;2.10;;;1.73;;
26750;SDS011;14345;48.272;25.926;2023-05-07T00:56:58;2.20;;;2.00;;
26750;SDS011;14345;48.272;25.926;2023-05-07T00:59:24;3.10;;;2.08;;
26750;SDS011;14345;48.272;25.926;2023-05-07T01:01:50;4.20;;;2.00;;
26750;SDS011;14345;48.272;25.926;2023-05-07T01:04:17;4.03;;;2.25;;
26750;SDS011;14345;48.272;25.926;2023-05-07T01:06:44;8.75;;;2.10;;
26750;SDS011;14345;48.272;25.926;2023-05-07T01:09:10;3.47;;;2.10;;
26750;SDS011;14345;48.272;25.926;2023-05-07T01:11:36;7.57;;;2.10;;
26750;SDS011;14345;48.272;25.926;2023-05-07T01:14:03;5.95;;;2.30;;
26750;SDS011;14345;48.272;25.926;2023-05-07T01:16:29;4.53;;;1.98;;
26750;SDS011;14345;48.272;25.926;2023-05-07T01:18:56;2.40;;;1.90;;
26750;SDS011;14345;48.272;25.926;2023-05-07T01:21:25;3.67;;;2.20;;
26750;SDS011;14345;48.272;25.926;2023-05-07T01:23:52;3.22;;;2.10;;
26750;SDS011;14345;48.272;25.926;2023-05-07T01:26:18;3.55;;;2.20;;
26750;SDS011;14345;48.272;25.926;2023-05-07T01:28:45;3.20;;;2.10;;
26750;SDS011;14345;48.272;25.926;2023-05-07T01:31:11;3.97;;;2.20;;
26750;SDS011;14345;48.272;25.926;2023-05-07T01:33:39;3.75;;;1.85;;
26750;SDS011;14345;48.272;25.926;2023-05-07T01:36:06;4.70;;;2.22;;
26750;SDS011;14345;48.272;25.926;2023-05-07T01:38:33;3.83;;;2.10;;
26750;SDS011;14345;48.272;25.926;2023-05-07T01:40:59;1.98;;;1.63;;
26750;SDS011;14345;48.272;25.926;2023-05-07T01:43:25;6.20;;;2.25;;
26750;SDS011;14345;48.272;25.926;2023-05-07T01:45:52;3.05;;;2.10;;
26750;SDS011;14345;48.272;25.926;2023-05-07T01:48:18;4.25;;;2.20;;
26750;SDS011;14345;48.272;25.926;2023-05-07T01:50:44;4.10;;;2.45;;
26750;SDS011;14345;48.272;25.926;2023-05-07T01:53:10;2.58;;;2.00;;
26750;SDS011;14345;48.272;25.926;2023-05-07T01:55:36;1.98;;;1.77;;
26750;SDS011;14345;48.272;25.926;2023-05-07T01:58:03;3.33;;;1.95;;
26750;SDS011;14345;48.272;25.926;2023-05-07T02:00:29;3.60;;;2.20;;
26750;SDS011;14345;48.272;25.926;2023-05-07T02:02:55;2.30;;;1.83;;
26750;SDS011;14345;48.272;25.926;2023-05-07T02:05:21;6.90;;;2.40;;
26750;SDS011;14345;48.272;25.926;2023-05-07T02:07:47;3.63;;;2.13;;
26750;SDS011;14345;48.272;25.926;2023-05-07T02:10:13;3.88;;;2.55;;
26750;SDS011;14345;48.272;25.926;2023-05-07T02:12:39;4.38;;;2.25;;
26750;SDS011;14345;48.272;25.926;2023-05-07T02:15:05;5.40;;;2.50;;
26750;SDS011;14345;48.272;25.926;2023-05-07T02:17:32;3.78;;;2.00;;
26750;SDS011;14345;48.272;25.926;2023-05-07T02:19:58;4.40;;;2.35;;
26750;SDS011;14345;48.272;25.926;2023-05-07T02:22:24;3.30;;;2.25;;
26750;SDS011;14345;48.272;25.926;2023-05-07T02:24:51;3.03;;;2.03;;
26750;SDS011;14345;48.272;25.926;2023-05-07T02:27:17;2.55;;;1.85;;
26750;SDS011;14345;48.272;25.926;2023-05-07T02:29:43;3.80;;;2.13;;
26750;SDS011;14345;48.272;25.926;2023-05-07T02:32:08;4.10;;;1.95;;
26750;SDS011;14345;48.272;25.926;2023-05-07T02:34:34;12.68;;;2.65;;
26750;SDS011;14345;48.272;25.926;2023-05-07T02:37:00;3.08;;;1.80;;
26750;SDS011;14345;48.272;25.926;2023-05-07T02:39:26;2.83;;;1.80;;
26750;SDS011;14345;48.272;25.926;2023-05-07T02:41:53;4.57;;;2.00;;
26750;SDS011;14345;48.272;25.926;2023-05-07T02:44:19;3.35;;;1.98;;
26750;SDS011;14345;48.272;25.926;2023-05-07T02:46:45;3.55;;;1.70;;
26750;SDS011;14345;48.272;25.926;2023-05-07T02:49:11;6.85;;;2.00;;
26750;SDS011;14345;48.272;25.926;2023-05-07T02:51:37;2.38;;;1.70;;
26750;SDS011;14345;48.272;25.926;2023-05-07T02:54:03;2.95;;;1.88;;
26750;SDS011;14345;48.272;25.926;2023-05-07T02:56:29;3.80;;;1.90;;
26750;SDS011;14345;48.272;25.926;2023-05-07T02:58:55;3.13;;;1.90;;
26750;SDS011;14345;48.272;25.926;2023-05-07T03:01:21;2.47;;;1.52;;
26750;SDS011;14345;48.272;25.926;2023-05-07T03:03:47;3.70;;;1.42;;
26750;SDS011;14345;48.272;25.926;2023-05-07T03:06:13;3.28;;;1.73;;
26750;SDS011;14345;48.272;25.926;2023-05-07T03:08:40;2.92;;;1.67;;
26750;SDS011;14345;48.272;25.926;2023-05-07T03:11:06;4.13;;;1.75;;
26750;SDS011;14345;48.272;25.926;2023-05-07T03:13:32;4.32;;;2.00;;
26750;SDS011;14345;48.272;25.926;2023-05-07T03:15:58;2.65;;;1.58;;
26750;SDS011;14345;48.272;25.926;2023-05-07T03:18:24;4.05;;;1.88;;
26750;SDS011;14345;48.272;25.926;2023-05-07T03:20:51;2.75;;;1.30;;
26750;SDS011;14345;48.272;25.926;2023-05-07T03:23:17;4.05;;;1.73;;
26750;SDS011;14345;48.272;25.926;2023-05-07T03:25:43;2.97;;;1.70;;
26750;SDS011;14345;48.272;25.926;2023-05-07T03:28:09;2.92;;;1.80;;
26750;SDS011;14345;48.272;25.926;2023-05-07T03:30:35;2.72;;;1.98;;
26750;SDS011;14345;48.272;25.926;2023-05-07T03:33:01;3.90;;;1.67;;
26750;SDS011;14345;48.272;25.926;2023-05-07T03:35:27;3.58;;;1.48;;
26750;SDS011;14345;48.272;25.926;2023-05-07T03:37:53;1.95;;;1.60;;
26750;SDS011;14345;48.272;25.926;2023-05-07T03:40:19;4.13;;;1.77;;
26750;SDS011;14345;48.272;25.926;2023-05-07T03:42:45;3.40;;;1.90;;
26750;SDS011;14345;48.272;25.926;2023-05-07T03:45:11;2.38;;;1.42;;
26750;SDS011;14345;48.272;25.926;2023-05-07T03:47:37;2.78;;;1.27;;
26750;SDS011;14345;48.272;25.926;2023-05-07T03:50:03;2.30;;;1.50;;
26750;SDS011;14345;48.272;25.926;2023-05-07T03:52:29;5.55;;;1.70;;
26750;SDS011;14345;48.272;25.926;2023-05-07T03:54:55;2.20;;;1.40;;
26750;SDS011;14345;48.272;25.926;2023-05-07T03:57:21;3.40;;;1.83;;
26750;SDS011;14345;48.272;25.926;2023-05-07T03:59:47;4.78;;;1.90;;
26750;SDS011;14345;48.272;25.926;2023-05-07T04:02:13;3.75;;;1.67;;
26750;SDS011;14345;48.272;25.926;2023-05-07T04:04:39;3.40;;;1.33;;
26750;SDS011;14345;48.272;25.926;2023-05-07T04:07:05;3.63;;;1.92;;
26750;SDS011;14345;48.272;25.926;2023-05-07T04:09:32;2.50;;;1.40;;
26750;SDS011;14345;48.272;25.926;2023-05-07T04:11:58;3.63;;;1.60;;
26750;SDS011;14345;48.272;25.926;2023-05-07T04:14:24;4.78;;;1.65;;
26750;SDS011;14345;48.272;25.926;2023-05-07T04:16:50;3.00;;;2.00;;
26750;SDS011;14345;48.272;25.926;2023-05-07T04:19:16;3.80;;;2.05;;
26750;SDS011;14345;48.272;25.926;2023-05-07T04:21:42;4.20;;;2.03;;
26750;SDS011;14345;48.272;25.926;2023-05-07T04:24:08;3.75;;;1.70;;
26750;SDS011;14345;48.272;25.926;2023-05-07T04:26:34;2.13;;;1.65;;
26750;SDS011;14345;48.272;25.926;2023-05-07T04:29:00;5.35;;;1.70;;
26750;SDS011;14345;48.272;25.926;2023-05-07T04:31:26;2.67;;;1.63;;
26750;SDS011;14345;48.272;25.926;2023-05-07T04:33:52;4.90;;;1.77;;
26750;SDS011;14345;48.272;25.926;2023-05-07T04:36:18;2.85;;;1.70;;
26750;SDS011;14345;48.272;25.926;2023-05-07T04:38:44;2.95;;;1.90;;
26750;SDS011;14345;48.272;25.926;2023-05-07T04:41:12;6.15;;;2.00;;
26750;SDS011;14345;48.272;25.926;2023-05-07T04:43:38;2.85;;;1.77;;
26750;SDS011;14345;48.272;25.926;2023-05-07T04:46:05;2.40;;;1.63;;
26750;SDS011;14345;48.272;25.926;2023-05-07T04:48:31;3.25;;;2.00;;
26750;SDS011;14345;48.272;25.926;2023-05-07T04:50:57;3.30;;;1.70;;
26750;SDS011;14345;48.272;25.926;2023-05-07T04:53:23;3.05;;;1.67;;
26750;SDS011;14345;48.272;25.926;2023-05-07T04:55:49;3.30;;;2.08;;
26750;SDS011;14345;48.272;25.926;2023-05-07T04:58:20;6.43;;;1.83;;
26750;SDS011;14345;48.272;25.926;2023-05-07T05:00:46;3.20;;;2.03;;
26750;SDS011;14345;48.272;25.926;2023-05-07T05:03:12;3.33;;;1.95;;
26750;SDS011;14345;48.272;25.926;2023-05-07T05:05:38;3.22;;;2.00;;
26750;SDS011;14345;48.272;25.926;2023-05-07T05:08:04;3.17;;;2.08;;
26750;SDS011;14345;48.272;25.926;2023-05-07T05:10:30;7.32;;;2.92;;
26750;SDS011;14345;48.272;25.926;2023-05-07T05:12:56;8.23;;;4.40;;
26750;SDS011;14345;48.272;25.926;2023-05-07T05:15:22;11.70;;;6.20;;
26750;SDS011;14345;48.272;25.926;2023-05-07T05:17:48;8.68;;;5.22;;
26750;SDS011;14345;48.272;25.926;2023-05-07T05:20:14;6.80;;;3.97;;
26750;SDS011;14345;48.272;25.926;2023-05-07T05:22:41;4.82;;;2.75;;
26750;SDS011;14345;48.272;25.926;2023-05-07T05:25:07;5.28;;;2.88;;
26750;SDS011;14345;48.272;25.926;2023-05-07T05:27:34;6.30;;;3.17;;
26750;SDS011;14345;48.272;25.926;2023-05-07T05:30:00;4.88;;;2.45;;
26750;SDS011;14345;48.272;25.926;2023-05-07T05:32:26;4.43;;;2.40;;
26750;SDS011;14345;48.272;25.926;2023-05-07T05:34:52;3.88;;;2.03;;
26750;SDS011;14345;48.272;25.926;2023-05-07T05:37:18;3.15;;;1.90;;
26750;SDS011;14345;48.272;25.926;2023-05-07T05:39:44;2.10;;;1.80;;
26750;SDS011;14345;48.272;25.926;2023-05-07T05:42:10;2.72;;;1.70;;
26750;SDS011;14345;48.272;25.926;2023-05-07T05:44:36;3.05;;;1.85;;
26750;SDS011;14345;48.272;25.926;2023-05-07T05:47:02;2.78;;;1.85;;
26750;SDS011;14345;48.272;25.926;2023-05-07T05:49:28;2.88;;;1.92;;
26750;SDS011;14345;48.272;25.926;2023-05-07T05:51:54;3.08;;;2.00;;
26750;SDS011;14345;48.272;25.926;2023-05-07T05:54:21;4.30;;;2.92;;
26750;SDS011;14345;48.272;25.926;2023-05-07T05:56:46;4.22;;;2.55;;
26750;SDS011;14345;48.272;25.926;2023-05-07T05:59:13;6.43;;;2.30;;
26750;SDS011;14345;48.272;25.926;2023-05-07T06:01:39;6.90;;;4.03;;
26750;SDS011;14345;48.272;25.926;2023-05-07T06:04:05;6.07;;;2.85;;
26750;SDS011;14345;48.272;25.926;2023-05-07T06:06:31;5.20;;;2.67;;
26750;SDS011;14345;48.272;25.926;2023-05-07T06:08:57;2.72;;;1.83;;
26750;SDS011;14345;48.272;25.926;2023-05-07T06:11:23;3.08;;;1.85;;
26750;SDS011;14345;48.272;25.926;2023-05-07T06:13:50;2.88;;;2.33;;
26750;SDS011;14345;48.272;25.926;2023-05-07T06:16:16;3.00;;;2.20;;
26750;SDS011;14345;48.272;25.926;2023-05-07T06:18:42;4.38;;;1.90;;
26750;SDS011;14345;48.272;25.926;2023-05-07T06:21:10;6.43;;;2.20;;
26750;SDS011;14345;48.272;25.926;2023-05-07T06:23:36;9.45;;;6.43;;
26750;SDS011;14345;48.272;25.926;2023-05-07T06:26:02;10.60;;;6.45;;
26750;SDS011;14345;48.272;25.926;2023-05-07T06:28:28;7.95;;;4.47;;
26750;SDS011;14345;48.272;25.926;2023-05-07T06:30:55;9.13;;;6.30;;
26750;SDS011;14345;48.272;25.926;2023-05-07T06:33:21;11.27;;;9.10;;
26750;SDS011;14345;48.272;25.926;2023-05-07T06:35:47;10.23;;;7.25;;
26750;SDS011;14345;48.272;25.926;2023-05-07T06:38:13;7.90;;;5.32;;
26750;SDS011;14345;48.272;25.926;2023-05-07T06:40:39;4.60;;;4.10;;
26750;SDS011;14345;48.272;25.926;2023-05-07T06:43:05;6.15;;;3.95;;
26750;SDS011;14345;48.272;25.926;2023-05-07T06:45:31;9.80;;;6.50;;
26750;SDS011;14345;48.272;25.926;2023-05-07T06:47:57;8.77;;;5.38;;
26750;SDS011;14345;48.272;25.926;2023-05-07T06:50:23;5.65;;;4.03;;
26750;SDS011;14345;48.272;25.926;2023-05-07T06:52:49;5.72;;;4.28;;
26750;SDS011;14345;48.272;25.926;2023-05-07T06:55:15;7.30;;;4.60;;
26750;SDS011;14345;48.272;25.926;2023-05-07T06:57:41;5.20;;;3.83;;
26750;SDS011;14345;48.272;25.926;2023-05-07T07:00:08;5.50;;;3.25;;
26750;SDS011;14345;48.272;25.926;2023-05-07T07:02:34;5.13;;;2.97;;
26750;SDS011;14345;48.272;25.926;2023-05-07T07:05:00;5.32;;;2.92;;
26750;SDS011;14345;48.272;25.926;2023-05-07T07:07:26;7.50;;;4.30;;
26750;SDS011;14345;48.272;25.926;2023-05-07T07:09:52;6.00;;;3.92;;
26750;SDS011;14345;48.272;25.926;2023-05-07T07:12:18;5.63;;;4.10;;
26750;SDS011;14345;48.272;25.926;2023-05-07T07:14:44;10.50;;;3.00;;
26750;SDS011;14345;48.272;25.926;2023-05-07T07:17:10;11.48;;;6.65;;
26750;SDS011;14345;48.272;25.926;2023-05-07T07:19:36;8.90;;;5.85;;
26750;SDS011;14345;48.272;25.926;2023-05-07T07:22:03;6.13;;;4.03;;
26750;SDS011;14345;48.272;25.926;2023-05-07T07:24:29;4.80;;;3.08;;
26750;SDS011;14345;48.272;25.926;2023-05-07T07:26:55;4.85;;;3.33;;
26750;SDS011;14345;48.272;25.926;2023-05-07T07:29:22;6.20;;;2.95;;
26750;SDS011;14345;48.272;25.926;2023-05-07T07:31:50;4.65;;;2.90;;
26750;SDS011;14345;48.272;25.926;2023-05-07T07:34:16;6.93;;;3.75;;
26750;SDS011;14345;48.272;25.926;2023-05-07T07:36:42;3.17;;;2.53;;
26750;SDS011;14345;48.272;25.926;2023-05-07T07:39:08;5.57;;;2.38;;
26750;SDS011;14345;48.272;25.926;2023-05-07T07:41:34;6.00;;;3.67;;
26750;SDS011;14345;48.272;25.926;2023-05-07T07:44:00;8.70;;;3.72;;
26750;SDS011;14345;48.272;25.926;2023-05-07T07:46:28;3.90;;;2.92;;
26750;SDS011;14345;48.272;25.926;2023-05-07T07:48:54;7.45;;;3.83;;
26750;SDS011;14345;48.272;25.926;2023-05-07T07:51:23;3.92;;;2.78;;
26750;SDS011;14345;48.272;25.926;2023-05-07T07:53:49;4.38;;;2.85;;
26750;SDS011;14345;48.272;25.926;2023-05-07T07:56:15;3.58;;;2.60;;
26750;SDS011;14345;48.272;25.926;2023-05-07T07:58:41;5.93;;;2.78;;
26750;SDS011;14345;48.272;25.926;2023-05-07T08:01:07;5.65;;;2.63;;
26750;SDS011;14345;48.272;25.926;2023-05-07T08:03:33;7.78;;;3.25;;
26750;SDS011;14345;48.272;25.926;2023-05-07T08:05:59;3.67;;;2.60;;
26750;SDS011;14345;48.272;25.926;2023-05-07T08:08:25;4.40;;;2.83;;
26750;SDS011;14345;48.272;25.926;2023-05-07T08:10:51;3.67;;;2.55;;
26750;SDS011;14345;48.272;25.926;2023-05-07T08:13:17;3.17;;;2.25;;
26750;SDS011;14345;48.272;25.926;2023-05-07T08:15:43;5.05;;;2.65;;
26750;SDS011;14345;48.272;25.926;2023-05-07T08:18:09;4.43;;;3.10;;
26750;SDS011;14345;48.272;25.926;2023-05-07T08:20:35;5.13;;;2.67;;
26750;SDS011;14345;48.272;25.926;2023-05-07T08:23:04;4.45;;;2.30;;
26750;SDS011;14345;48.272;25.926;2023-05-07T08:25:32;4.78;;;2.47;;
26750;SDS011;14345;48.272;25.926;2023-05-07T08:27:59;4.40;;;2.55;;
26750;SDS011;14345;48.272;25.926;2023-05-07T08:30:25;3.53;;;2.40;;
26750;SDS011;14345;48.272;25.926;2023-05-07T08:32:51;2.90;;;2.28;;
26750;SDS011;14345;48.272;25.926;2023-05-07T08:35:17;6.43;;;2.70;;
26750;SDS011;14345;48.272;25.926;2023-05-07T08:37:43;4.07;;;2.58;;
26750;SDS011;14345;48.272;25.926;2023-05-07T08:40:10;3.72;;;2.67;;
26750;SDS011;14345;48.272;25.926;2023-05-07T08:42:36;4.22;;;2.72;;
26750;SDS011;14345;48.272;25.926;2023-05-07T08:45:03;5.50;;;2.50;;
26750;SDS011;14345;48.272;25.926;2023-05-07T08:47:51;4.05;;;2.70;;
26750;SDS011;14345;48.272;25.926;2023-05-07T08:50:18;3.78;;;2.63;;
26750;SDS011;14345;48.272;25.926;2023-05-07T08:52:44;5.40;;;2.80;;
26750;SDS011;14345;48.272;25.926;2023-05-07T08:55:10;8.40;;;2.88;;
26750;SDS011;14345;48.272;25.926;2023-05-07T08:57:38;5.25;;;3.20;;
26750;SDS011;14345;48.272;25.926;2023-05-07T09:00:04;5.60;;;4.05;;
26750;SDS011;14345;48.272;25.926;2023-05-07T09:02:32;6.15;;;4.50;;
26750;SDS011;14345;48.272;25.926;2023-05-07T09:04:58;5.72;;;3.92;;
26750;SDS011;14345;48.272;25.926;2023-05-07T09:07:24;4.53;;;3.00;;
26750;SDS011;14345;48.272;25.926;2023-05-07T09:09:51;4.70;;;3.15;;
26750;SDS011;14345;48.272;25.926;2023-05-07T09:12:18;5.15;;;2.95;;
26750;SDS011;14345;48.272;25.926;2023-05-07T09:14:45;5.88;;;2.92;;
26750;SDS011;14345;48.272;25.926;2023-05-07T09:17:11;5.82;;;3.30;;
26750;SDS011;14345;48.272;25.926;2023-05-07T09:19:37;3.95;;;3.00;;
26750;SDS011;14345;48.272;25.926;2023-05-07T09:22:04;3.95;;;2.63;;
26750;SDS011;14345;48.272;25.926;2023-05-07T09:24:32;3.88;;;2.72;;
26750;SDS011;14345;48.272;25.926;2023-05-07T09:27:03;6.70;;;3.28;;
26750;SDS011;14345;48.272;25.926;2023-05-07T09:29:29;4.30;;;3.03;;
26750;SDS011;14345;48.272;25.926;2023-05-07T09:32:00;3.47;;;2.50;;
26750;SDS011;14345;48.272;25.926;2023-05-07T09:34:26;3.50;;;2.50;;
26750;SDS011;14345;48.272;25.926;2023-05-07T09:36:52;3.53;;;2.65;;
26750;SDS011;14345;48.272;25.926;2023-05-07T09:39:19;4.45;;;2.47;;
26750;SDS011;14345;48.272;25.926;2023-05-07T09:41:45;2.45;;;2.03;;
26750;SDS011;14345;48.272;25.926;2023-05-07T09:44:12;3.97;;;2.90;;
26750;SDS011;14345;48.272;25.926;2023-05-07T09:46:39;6.03;;;4.18;;
26750;SDS011;14345;48.272;25.926;2023-05-07T09:49:07;5.53;;;3.28;;
26750;SDS011;14345;48.272;25.926;2023-05-07T09:51:45;4.93;;;3.25;;
26750;SDS011;14345;48.272;25.926;2023-05-07T09:54:13;4.18;;;2.70;;
26750;SDS011;14345;48.272;25.926;2023-05-07T09:56:39;4.80;;;3.13;;
26750;SDS011;14345;48.272;25.926;2023-05-07T09:59:10;6.07;;;3.33;;
26750;SDS011;14345;48.272;25.926;2023-05-07T10:01:38;6.55;;;3.05;;
26750;SDS011;14345;48.272;25.926;2023-05-07T10:04:04;4.97;;;3.00;;
26750;SDS011;14345;48.272;25.926;2023-05-07T10:06:33;9.10;;;6.00;;
26750;SDS011;14345;48.272;25.926;2023-05-07T10:08:59;7.05;;;4.25;;
26750;SDS011;14345;48.272;25.926;2023-05-07T10:11:26;6.10;;;3.40;;
26750;SDS011;14345;48.272;25.926;2023-05-07T10:13:52;5.32;;;3.47;;
26750;SDS011;14345;48.272;25.926;2023-05-07T10:16:18;5.00;;;4.13;;
26750;SDS011;14345;48.272;25.926;2023-05-07T10:18:45;9.55;;;7.28;;
26750;SDS011;14345;48.272;25.926;2023-05-07T10:21:21;9.02;;;7.05;;
26750;SDS011;14345;48.272;25.926;2023-05-07T10:23:53;7.93;;;4.60;;
26750;SDS011;14345;48.272;25.926;2023-05-07T10:26:20;6.68;;;5.18;;
26750;SDS011;14345;48.272;25.926;2023-05-07T10:28:49;6.25;;;4.30;;
26750;SDS011;14345;48.272;25.926;2023-05-07T10:33:53;7.25;;;4.20;;
26750;SDS011;14345;48.272;25.926;2023-05-07T10:36:20;3.92;;;3.30;;
26750;SDS011;14345;48.272;25.926;2023-05-07T10:38:47;9.65;;;2.92;;
26750;SDS011;14345;48.272;25.926;2023-05-07T10:41:13;5.80;;;3.13;;
26750;SDS011;14345;48.272;25.926;2023-05-07T10:43:42;6.38;;;3.58;;
26750;SDS011;14345;48.272;25.926;2023-05-07T10:51:21;7.22;;;3.65;;
26750;SDS011;14345;48.272;25.926;2023-05-07T10:53:48;5.63;;;3.50;;
26750;SDS011;14345;48.272;25.926;2023-05-07T10:58:43;6.47;;;3.25;;
26750;SDS011;14345;48.272;25.926;2023-05-07T11:01:10;6.43;;;4.50;;
26750;SDS011;14345;48.272;25.926;2023-05-07T11:04:12;5.97;;;4.05;;
26750;SDS011;14345;48.272;25.926;2023-05-07T11:06:24;5.15;;;3.47;;
26750;SDS011;14345;48.272;25.926;2023-05-07T11:08:56;7.53;;;3.10;;
26750;SDS011;14345;48.272;25.926;2023-05-07T11:14:08;4.55;;;3.40;;
26750;SDS011;14345;48.272;25.926;2023-05-07T11:16:34;5.45;;;3.60;;
26750;SDS011;14345;48.272;25.926;2023-05-07T11:19:01;5.53;;;2.83;;
26750;SDS011;14345;48.272;25.926;2023-05-07T11:23:59;4.55;;;3.60;;
26750;SDS011;14345;48.272;25.926;2023-05-07T11:26:26;4.18;;;3.08;;
26750;SDS011;14345;48.272;25.926;2023-05-07T11:28:52;4.97;;;3.33;;
26750;SDS011;14345;48.272;25.926;2023-05-07T11:31:21;8.15;;;3.88;;
26750;SDS011;14345;48.272;25.926;2023-05-07T11:33:48;6.00;;;3.38;;
26750;SDS011;14345;48.272;25.926;2023-05-07T11:36:14;5.25;;;3.65;;
26750;SDS011;14345;48.272;25.926;2023-05-07T11:38:41;5.15;;;3.88;;
26750;SDS011;14345;48.272;25.926;2023-05-07T11:41:07;6.53;;;3.88;;
26750;SDS011;14345;48.272;25.926;2023-05-07T11:43:33;5.88;;;3.85;;
26750;SDS011;14345;48.272;25.926;2023-05-07T11:46:10;3.97;;;3.22;;
26750;SDS011;14345;48.272;25.926;2023-05-07T11:48:37;5.15;;;3.60;;
26750;SDS011;14345;48.272;25.926;2023-05-07T11:51:04;3.95;;;3.00;;
26750;SDS011;14345;48.272;25.926;2023-05-07T11:53:36;4.85;;;3.38;;
26750;SDS011;14345;48.272;25.926;2023-05-07T11:56:09;3.92;;;3.00;;
26750;SDS011;14345;48.272;25.926;2023-05-07T11:58:36;5.47;;;2.88;;
26750;SDS011;14345;48.272;25.926;2023-05-07T12:01:02;5.95;;;4.00;;
26750;SDS011;14345;48.272;25.926;2023-05-07T12:03:28;5.28;;;3.83;;
26750;SDS011;14345;48.272;25.926;2023-05-07T12:05:54;9.40;;;4.60;;
26750;SDS011;14345;48.272;25.926;2023-05-07T12:08:21;7.30;;;5.10;;
26750;SDS011;14345;48.272;25.926;2023-05-07T12:10:48;6.13;;;4.47;;
26750;SDS011;14345;48.272;25.926;2023-05-07T12:13:15;6.85;;;5.10;;
26750;SDS011;14345;48.272;25.926;2023-05-07T12:15:42;7.32;;;4.63;;
26750;SDS011;14345;48.272;25.926;2023-05-07T12:18:08;7.57;;;5.43;;
26750;SDS011;14345;48.272;25.926;2023-05-07T12:20:35;8.77;;;4.68;;
26750;SDS011;14345;48.272;25.926;2023-05-07T12:23:01;8.15;;;4.50;;
26750;SDS011;14345;48.272;25.926;2023-05-07T12:25:30;11.82;;;4.72;;
26750;SDS011;14345;48.272;25.926;2023-05-07T12:27:57;6.32;;;4.15;;
26750;SDS011;14345;48.272;25.926;2023-05-07T12:30:24;8.90;;;5.00;;
26750;SDS011;14345;48.272;25.926;2023-05-07T12:32:53;7.60;;;5.00;;
26750;SDS011;14345;48.272;25.926;2023-05-07T12:35:26;9.38;;;4.32;;
26750;SDS011;14345;48.272;25.926;2023-05-07T12:37:55;5.20;;;3.88;;
26750;SDS011;14345;48.272;25.926;2023-05-07T12:40:24;5.80;;;4.15;;
26750;SDS011;14345;48.272;25.926;2023-05-07T12:42:52;5.20;;;4.10;;
26750;SDS011;14345;48.272;25.926;2023-05-07T12:45:20;4.10;;;3.40;;
26750;SDS011;14345;48.272;25.926;2023-05-07T12:47:46;6.25;;;4.47;;
26750;SDS011;14345;48.272;25.926;2023-05-07T12:50:13;5.15;;;4.20;;
26750;SDS011;14345;48.272;25.926;2023-05-07T12:52:39;9.27;;;5.07;;
26750;SDS011;14345;48.272;25.926;2023-05-07T12:55:06;7.90;;;5.13;;
26750;SDS011;14345;48.272;25.926;2023-05-07T12:57:39;11.88;;;6.22;;
26750;SDS011;14345;48.272;25.926;2023-05-07T13:00:05;6.13;;;4.65;;
26750;SDS011;14345;48.272;25.926;2023-05-07T13:02:41;7.55;;;4.93;;
26750;SDS011;14345;48.272;25.926;2023-05-07T13:05:11;9.32;;;6.22;;
26750;SDS011;14345;48.272;25.926;2023-05-07T13:07:37;7.00;;;5.45;;
26750;SDS011;14345;48.272;25.926;2023-05-07T13:10:04;7.65;;;5.78;;
26750;SDS011;14345;48.272;25.926;2023-05-07T13:12:30;6.97;;;5.40;;
26750;SDS011;14345;48.272;25.926;2023-05-07T13:14:56;7.35;;;4.88;;
26750;SDS011;14345;48.272;25.926;2023-05-07T13:17:22;6.95;;;4.38;;
26750;SDS011;14345;48.272;25.926;2023-05-07T13:19:48;8.38;;;6.32;;
26750;SDS011;14345;48.272;25.926;2023-05-07T13:22:15;7.50;;;5.20;;
26750;SDS011;14345;48.272;25.926;2023-05-07T13:24:41;6.18;;;4.40;;
26750;SDS011;14345;48.272;25.926;2023-05-07T13:27:08;5.65;;;4.32;;
26750;SDS011;14345;48.272;25.926;2023-05-07T13:29:34;8.07;;;4.97;;
26750;SDS011;14345;48.272;25.926;2023-05-07T13:32:00;7.78;;;5.90;;
26750;SDS011;14345;48.272;25.926;2023-05-07T13:34:26;11.43;;;9.43;;
26750;SDS011;14345;48.272;25.926;2023-05-07T13:36:52;10.15;;;6.50;;
26750;SDS011;14345;48.272;25.926;2023-05-07T13:39:18;7.90;;;6.13;;
26750;SDS011;14345;48.272;25.926;2023-05-07T13:41:44;6.65;;;5.38;;
26750;SDS011;14345;48.272;25.926;2023-05-07T13:44:10;8.38;;;5.22;;
26750;SDS011;14345;48.272;25.926;2023-05-07T13:46:36;7.47;;;4.45;;
26750;SDS011;14345;48.272;25.926;2023-05-07T13:49:02;7.00;;;5.13;;
26750;SDS011;14345;48.272;25.926;2023-05-07T13:51:28;10.40;;;7.75;;
26750;SDS011;14345;48.272;25.926;2023-05-07T13:53:54;16.85;;;11.45;;
26750;SDS011;14345;48.272;25.926;2023-05-07T13:56:20;12.40;;;8.60;;
26750;SDS011;14345;48.272;25.926;2023-05-07T13:58:46;8.02;;;5.57;;
26750;SDS011;14345;48.272;25.926;2023-05-07T14:01:12;7.95;;;6.00;;
26750;SDS011;14345;48.272;25.926;2023-05-07T14:03:38;8.63;;;6.10;;
26750;SDS011;14345;48.272;25.926;2023-05-07T14:06:05;6.90;;;5.80;;
26750;SDS011;14345;48.272;25.926;2023-05-07T14:08:31;9.68;;;6.68;;
26750;SDS011;14345;48.272;25.926;2023-05-07T14:10:57;9.05;;;6.03;;
26750;SDS011;14345;48.272;25.926;2023-05-07T14:13:23;6.95;;;5.25;;
26750;SDS011;14345;48.272;25.926;2023-05-07T14:15:49;6.53;;;4.85;;
26750;SDS011;14345;48.272;25.926;2023-05-07T14:18:15;8.23;;;4.60;;
26750;SDS011;14345;48.272;25.926;2023-05-07T14:20:41;6.55;;;4.15;;
26750;SDS011;14345;48.272;25.926;2023-05-07T14:23:12;7.45;;;4.07;;
26750;SDS011;14345;48.272;25.926;2023-05-07T14:25:39;8.40;;;4.40;;
26750;SDS011;14345;48.272;25.926;2023-05-07T14:28:05;7.93;;;5.10;;
26750;SDS011;14345;48.272;25.926;2023-05-07T14:30:31;6.20;;;4.10;;
26750;SDS011;14345;48.272;25.926;2023-05-07T14:32:57;7.57;;;4.63;;
26750;SDS011;14345;48.272;25.926;2023-05-07T14:35:23;7.10;;;4.18;;
26750;SDS011;14345;48.272;25.926;2023-05-07T14:37:49;9.85;;;5.32;;
26750;SDS011;14345;48.272;25.926;2023-05-07T14:40:15;8.57;;;6.63;;
26750;SDS011;14345;48.272;25.926;2023-05-07T14:42:41;9.93;;;7.78;;
26750;SDS011;14345;48.272;25.926;2023-05-07T14:45:07;13.05;;;8.45;;